ワルシャワ の空港の天気 - METARとTAF

ワルシャワ・フレデリック・ショパン空港 ( EPWA / WAW ) - ポーランド ワルシャワ
飛行場実況気象(Metar)
観測時間02/17 15:30 CET (02/17 14:30 UTC)
風向・風速西北西 3m/s
視程10km以上
天気現象
全天の8割程度の雲 雲底高度 730m
気温9℃
湿度71%
気圧1023hPa
METAREPWA 171430Z 29006KT 260V320 9999 BKN024 09/04 Q1023 NOSIG
過去の天気等 Google飛行場航空写真 Wunderground天気予報

過去48時間のMETAR

飛行場予報(TAF)
発表時間: 2/17 15:08 CET (2/17 14:08 UTC)
予報対象時間: 17日16時 CET ~ 18日16時 CET
風向・風速西 5m/s
視程10km以上
全天の8割程度の雲 雲底高度 760m
17日19時 CET ~ 17日22時 CET に一時的に
視程3000m
天気現象もや
全天の8割程度の雲 雲底高度 400m
17日22時 CET ~ 18日1時 CET に徐々に
風向・風速不定 2m/s
視程3000m
天気現象もや
全天の8割程度の雲 雲底高度 400m
17日22時 CET ~ 18日7時 CET に一時的に
全天の8割程度の雲 雲底高度 240m
17日23時 CET から 確率 40% で
視程600m
天気現象
全天を覆う雲 雲底高度 60m
18日11時 CET ~ 18日13時 CET に徐々に
視程8000m
全天の4割程度の雲 雲底高度 610m
TAF EPWA 171408Z 1715/1815 28010KT 9999 BKN025
TEMPO 1718/1721 3000 BR BKN013
BECMG 1721/1724 VRB03KT 3000 BR BKN013
TEMPO 1721/1806 BKN008
PROB40 1722/1805 0600 FG OVC002
BECMG 1810/1812 8000 SCT020